« Back
NWS Peachtree City, Ga » Text Product » ATL Terminal Aerodrome Forecast


Printer-friendly Version
Current Version              Previous Versions:   1  2  3  4  5  6  7  8  9  

Terminal Aerodrome Forecast

942
FTUS42 KFFC 292100 AAB
TAFATL
TAF AMD
KATL 292138Z 2922/3024 31011G16KT P6SM FEW050
     FM300100 35007KT P6SM SKC
     FM301300 04006KT P6SM FEW030
     FM301800 35006KT P6SM SCT030 SCT250=



USA.gov is the U.S. government's official web portal to all federal, state and local government web resources and services.